Ellenville, New York
Current Conditions -  °F | °C
As of 10:54 PM on Friday 28 Nov 2014 (Local Time) from KMGJ Reporting Station
Clear Clear  
Wind Chill:   Ceiling: Unl
Heat Index: 15°   Visibility: 10mi
Dew Point: 10°   Wind: 6mph
Humidity: 80%   Direction: 210°SSW
Pressure: 30.24"   Gusts: NA
Location:  41.72°N, 74.4°W
Report Text: KMGJ 290354Z AUTO 21005KT 10SM CLR M09/M12 A3024 RMK AO2 SLP245 I1000 T10941122 TSNO $
Loading
Personal Weather Stations






























Interactive Weather Map New forecast layout! Learn more

10-Day Weather Forecast

Advertisements
Track Severe Weather on mobile